Time;durP1;ratioP1;P1;durP2;ratioP2;P2;SDS_P1;SDS_P2;PMS_P1;PMS_P2;Temp;Humidity;BMP_temperature;BMP_pressure;BME280_temperature;BME280_humidity;BME280_pressure;Samples;Min_cycle;Max_cycle;Signal;HPM_P1;HPM_P2
2023/03/24 00:00:33;;;;;;;38.80;31.00;;;27.40;80.40;;;;;;1790717;78;21677;-81
2023/03/24 00:03:04;;;;;;;36.23;31.30;;;27.50;80.40;;;;;;1801305;79;21977;-81
2023/03/24 00:05:35;;;;;;;44.18;31.93;;;27.50;79.80;;;;;;1788289;79;21144;-82
2023/03/24 00:08:07;;;;;;;38.20;30.70;;;27.50;80.30;;;;;;1760305;80;21391;-81
2023/03/24 00:10:39;;;;;;;38.42;31.95;;;27.60;79.80;;;;;;1822246;77;21422;-81
2023/03/24 00:13:10;;;;;;;39.60;31.77;;;27.60;78.60;;;;;;1821159;78;21190;-83
2023/03/24 00:15:41;;;;;;;38.02;31.90;;;27.60;79.30;;;;;;1830091;78;21623;-81
2023/03/24 00:18:13;;;;;;;35.70;31.07;;;27.70;79.10;;;;;;1831266;78;21222;-82
2023/03/24 00:20:45;;;;;;;37.78;31.27;;;27.70;79.10;;;;;;1810538;78;21223;-72
2023/03/24 00:23:16;;;;;;;40.43;32.45;;;27.70;79.70;;;;;;1812599;78;21241;-76
2023/03/24 00:25:48;;;;;;;41.42;33.00;;;27.70;79.60;;;;;;1807191;79;21139;-75
2023/03/24 00:28:19;;;;;;;43.25;34.00;;;27.70;79.90;;;;;;1800850;78;21224;-73
2023/03/24 00:30:51;;;;;;;37.53;31.73;;;27.80;80.00;;;;;;1804109;79;21246;-74
2023/03/24 00:33:24;;;;;;;40.40;32.42;;;27.80;79.80;;;;;;1808396;79;21821;-73
2023/03/24 00:35:56;;;;;;;46.83;32.80;;;27.80;78.70;;;;;;1808325;79;21152;-74
2023/03/24 00:38:28;;;;;;;39.95;32.85;;;27.80;79.20;;;;;;1808544;79;21459;-75
2023/03/24 00:40:59;;;;;;;43.17;33.50;;;27.80;78.80;;;;;;1810689;78;21236;-76
2023/03/24 00:43:31;;;;;;;45.15;34.40;;;27.80;79.90;;;;;;1807320;78;21208;-74
2023/03/24 00:46:04;;;;;;;47.67;33.80;;;27.90;79.70;;;;;;1797630;78;21893;-76
2023/03/24 00:48:37;;;;;;;43.90;34.55;;;27.90;79.20;;;;;;1808961;79;21148;-76
2023/03/24 00:51:21;;;;;;;43.10;31.60;;;28.00;79.70;;;;;;1802791;79;21100;-76
2023/03/24 00:53:56;;;;;;;46.70;33.88;;;28.10;79.00;;;;;;1815621;78;21449;-75
2023/03/24 00:56:28;;;;;;;46.90;34.33;;;28.10;79.10;;;;;;1808228;78;21524;-76
2023/03/24 00:59:01;;;;;;;43.95;34.38;;;28.20;79.90;;;;;;1798676;78;21880;-75
2023/03/24 01:01:35;;;;;;;39.50;32.08;;;28.30;79.20;;;;;;1810317;78;21210;-76
2023/03/24 01:04:07;;;;;;;42.58;34.23;;;28.30;78.60;;;;;;1805247;78;21352;-75
2023/03/24 01:06:38;;;;;;;38.50;32.08;;;28.30;78.40;;;;;;1805897;79;21259;-74
2023/03/24 01:09:11;;;;;;;33.55;29.52;;;28.40;78.60;;;;;;1803799;78;21867;-74
2023/03/24 01:11:42;;;;;;;38.98;30.92;;;28.40;77.20;;;;;;1811090;77;21110;-75
2023/03/24 01:14:15;;;;;;;34.53;29.32;;;28.40;77.10;;;;;;1816917;79;21140;-74
2023/03/24 01:16:46;;;;;;;31.52;28.12;;;28.50;76.30;;;;;;1809090;79;21184;-74
2023/03/24 01:19:17;;;;;;;40.33;30.88;;;28.60;76.80;;;;;;1815544;78;21194;-76
2023/03/24 01:21:49;;;;;;;38.63;31.00;;;28.60;77.10;;;;;;1796864;79;21219;-75
2023/03/24 01:24:24;;;;;;;38.00;30.10;;;28.70;77.20;;;;;;1802127;78;21287;-75
2023/03/24 01:26:54;;;;;;;38.30;30.25;;;28.80;77.40;;;;;;1809059;78;21167;-75
2023/03/24 01:29:26;;;;;;;37.42;30.72;;;28.80;77.10;;;;;;1809391;78;21216;-76
2023/03/24 01:31:57;;;;;;;37.90;29.05;;;28.90;76.60;;;;;;1807974;78;21432;-76
2023/03/24 01:34:29;;;;;;;49.15;31.95;;;29.00;76.50;;;;;;1809231;78;21128;-77
2023/03/24 01:37:01;;;;;;;50.98;30.17;;;29.10;77.00;;;;;;1807579;77;21987;-74
2023/03/24 01:39:32;;;;;;;41.05;30.72;;;29.10;76.60;;;;;;1823717;77;21132;-75
2023/03/24 01:42:04;;;;;;;43.92;31.17;;;29.20;76.70;;;;;;1812238;77;21470;-75
2023/03/24 01:44:38;;;;;;;38.42;29.50;;;29.20;76.40;;;;;;1804835;78;21336;-75
2023/03/24 01:47:09;;;;;;;41.15;30.85;;;29.30;76.00;;;;;;1814524;77;21664;-76
2023/03/24 01:49:45;;;;;;;38.13;31.27;;;29.40;76.00;;;;;;1807872;78;21205;-76
2023/03/24 01:52:27;;;;;;;34.80;29.05;;;29.50;76.00;;;;;;1799285;78;21534;-76
2023/03/24 01:55:01;;;;;;;37.28;30.32;;;29.50;75.10;;;;;;1802853;78;21206;-75
2023/03/24 01:57:42;;;;;;;55.23;32.13;;;29.60;75.10;;;;;;1821838;78;21418;-75
2023/03/24 02:00:15;;;;;;;67.67;33.70;;;29.70;74.50;;;;;;1824321;77;21136;-75
2023/03/24 02:02:53;;;;;;;47.75;30.97;;;29.70;74.40;;;;;;1823902;77;21423;-73
2023/03/24 02:05:27;;;;;;;44.83;33.42;;;29.90;74.70;;;;;;1818506;77;21199;-74
2023/03/24 02:08:03;;;;;;;46.48;32.17;;;29.90;74.50;;;;;;1804713;78;21209;-75
2023/03/24 02:10:42;;;;;;;38.08;29.30;;;30.00;73.80;;;;;;1805621;78;21275;-74
2023/03/24 02:13:14;;;;;;;49.05;33.42;;;30.10;72.60;;;;;;1798731;78;21244;-75
2023/03/24 02:16:07;;;;;;;39.78;28.52;;;30.20;73.60;;;;;;1819670;78;21707;-75
2023/03/24 02:18:53;;;;;;;45.65;32.08;;;30.20;73.00;;;;;;1784909;78;21858;-75
2023/03/24 02:21:27;;;;;;;40.90;29.72;;;30.40;73.20;;;;;;1775988;79;21256;-76
2023/03/24 02:24:25;;;;;;;40.25;30.75;;;30.40;72.50;;;;;;1825606;78;21175;-75
2023/03/24 02:26:58;;;;;;;48.80;31.55;;;30.50;71.40;;;;;;1790779;78;21939;-75
2023/03/24 02:29:50;;;;;;;33.85;27.45;;;30.60;72.50;;;;;;1802950;78;21805;-75
2023/03/24 02:32:52;;;;;;;54.73;30.48;;;30.70;72.00;;;;;;1792963;79;21151;-76
2023/03/24 02:35:41;;;;;;;43.33;30.35;;;30.80;71.00;;;;;;1833993;77;21072;-76
2023/03/24 02:38:35;;;;;;;32.83;27.98;;;31.00;71.10;;;;;;1798662;78;21540;-76
2023/03/24 02:41:14;;;;;;;34.75;26.90;;;31.10;70.10;;;;;;1818956;78;21124;-74
2023/03/24 02:44:03;;;;;;;30.05;26.40;;;31.30;69.30;;;;;;1824833;77;21143;-75
2023/03/24 02:47:07;;;;;;;82.72;34.13;;;31.30;69.00;;;;;;1818774;77;21210;-75
2023/03/24 02:49:50;;;;;;;49.90;30.12;;;31.50;69.50;;;;;;1823486;77;21182;-76
2023/03/24 02:52:33;;;;;;;32.33;26.73;;;31.60;68.90;;;;;;1824519;78;21138;-76
2023/03/24 02:55:15;;;;;;;39.75;28.85;;;31.70;68.30;;;;;;1804785;77;21927;-75
2023/03/24 02:58:01;;;;;;;31.87;26.62;;;31.80;67.20;;;;;;1821155;78;21171;-75
2023/03/24 03:00:40;;;;;;;33.55;28.45;;;31.90;66.40;;;;;;1825899;77;21146;-75
2023/03/24 03:03:13;;;;;;;29.07;25.97;;;32.00;67.30;;;;;;1814434;78;21175;-75
2023/03/24 03:05:47;;;;;;;33.30;25.43;;;32.10;66.10;;;;;;1809604;78;21457;-77
2023/03/24 03:08:20;;;;;;;33.73;26.12;;;32.20;65.70;;;;;;1813671;77;21129;-74
2023/03/24 03:10:54;;;;;;;30.75;26.35;;;32.30;65.80;;;;;;1814025;78;21175;-75
2023/03/24 03:13:37;;;;;;;33.83;26.87;;;32.40;66.40;;;;;;1819236;78;21156;-74
2023/03/24 03:16:14;;;;;;;32.93;26.07;;;32.40;66.30;;;;;;1819223;78;21406;-75
2023/03/24 03:18:49;;;;;;;29.92;26.62;;;32.60;65.60;;;;;;1815472;78;21136;-74
2023/03/24 03:21:23;;;;;;;33.98;26.93;;;32.60;66.60;;;;;;1817662;77;21116;-75
2023/03/24 03:23:56;;;;;;;28.90;25.30;;;32.80;65.10;;;;;;1813171;78;21198;-75
2023/03/24 03:26:31;;;;;;;28.57;25.48;;;32.90;64.20;;;;;;1828367;77;21207;-75
2023/03/24 03:29:06;;;;;;;34.98;25.43;;;32.90;65.10;;;;;;1832813;77;21402;-77
2023/03/24 03:31:49;;;;;;;39.10;28.17;;;33.00;64.90;;;;;;1828581;78;21190;-75
2023/03/24 03:34:20;;;;;;;36.45;26.68;;;33.10;65.10;;;;;;1807084;78;21655;-75
2023/03/24 03:36:54;;;;;;;34.15;26.55;;;33.30;64.70;;;;;;1832875;77;21172;-74
2023/03/24 03:39:31;;;;;;;45.30;35.78;;;33.40;64.60;;;;;;1820303;77;21611;-74
2023/03/24 03:42:02;;;;;;;;;;;33.50;63.90;;;;;;1828730;77;21814;-76
2023/03/24 03:44:33;;;;;;;30.48;26.23;;;33.60;63.80;;;;;;1808335;78;20436;-74
2023/03/24 03:47:04;;;;;;;33.02;26.33;;;33.70;63.00;;;;;;1811345;78;21144;-74
2023/03/24 03:49:36;;;;;;;33.98;25.82;;;33.80;63.70;;;;;;1823229;77;21226;-75
2023/03/24 03:52:14;;;;;;;27.77;24.18;;;33.90;63.10;;;;;;1813287;78;21182;-76
2023/03/24 03:54:47;;;;;;;28.27;24.30;;;34.00;61.40;;;;;;1816071;77;21189;-76
2023/03/24 03:57:19;;;;;;;29.65;24.02;;;34.00;60.80;;;;;;1806435;78;21239;-76
2023/03/24 03:59:50;;;;;;;33.05;25.20;;;34.00;61.70;;;;;;1796779;79;21163;-75
2023/03/24 04:02:34;;;;;;;31.10;23.75;;;34.20;61.10;;;;;;1793102;79;21431;-74
2023/03/24 04:05:26;;;;;;;42.78;24.82;;;34.20;59.30;;;;;;1802279;79;21197;-74
2023/03/24 04:08:05;;;;;;;29.18;22.98;;;34.20;59.70;;;;;;1804103;79;21210;-76
2023/03/24 04:10:51;;;;;;;34.43;25.20;;;34.30;60.10;;;;;;1791700;78;21382;-75
2023/03/24 04:13:39;;;;;;;36.35;24.10;;;34.30;60.00;;;;;;1813214;78;21191;-75
2023/03/24 04:16:19;;;;;;;24.75;22.07;;;34.40;58.70;;;;;;1818872;77;21432;-75
2023/03/24 04:18:53;;;;;;;36.65;23.52;;;34.60;58.40;;;;;;1807712;79;21191;-75
2023/03/24 04:21:33;;;;;;;33.67;23.07;;;34.60;57.90;;;;;;1822855;77;21702;-75
2023/03/24 04:24:33;;;;;;;33.33;22.07;;;34.70;57.40;;;;;;1805824;78;21478;-75
2023/03/24 04:27:26;;;;;;;33.28;23.50;;;34.80;57.30;;;;;;1805639;78;21145;-76
2023/03/24 04:30:05;;;;;;;44.85;24.02;;;34.90;56.80;;;;;;1800956;78;21426;-77
2023/03/24 04:32:42;;;;;;;27.25;22.25;;;34.90;57.20;;;;;;1801875;78;21986;-77
2023/03/24 04:35:31;;;;;;;23.07;20.57;;;34.90;56.60;;;;;;1789562;78;21924;-76
2023/03/24 04:38:06;;;;;;;29.82;20.68;;;35.00;55.10;;;;;;1805495;78;21208;-75
2023/03/24 04:40:40;;;;;;;29.27;21.30;;;35.10;55.40;;;;;;1797375;78;21269;-75
2023/03/24 04:43:16;;;;;;;30.07;22.10;;;35.10;56.20;;;;;;1777255;79;21381;-74
2023/03/24 04:45:48;;;;;;;31.75;23.20;;;35.20;56.20;;;;;;1775669;80;21601;-75
2023/03/24 04:48:20;;;;;;;25.35;20.72;;;35.30;55.40;;;;;;1751062;81;21168;-74
2023/03/24 04:50:57;;;;;;;36.90;22.42;;;35.40;54.90;;;;;;1785203;80;21197;-74
2023/03/24 04:53:30;;;;;;;23.67;20.75;;;35.30;54.50;;;;;;1784029;79;21174;-75
2023/03/24 04:56:05;;;;;;;33.13;22.82;;;35.30;54.40;;;;;;1819313;78;21190;-76
2023/03/24 04:58:36;;;;;;;25.25;21.35;;;35.30;55.20;;;;;;1805120;79;21246;-75
2023/03/24 05:01:08;;;;;;;27.40;22.25;;;35.30;55.20;;;;;;1817360;79;21155;-74
2023/03/24 05:03:44;;;;;;;31.33;22.15;;;35.40;55.50;;;;;;1819364;79;21276;-76
2023/03/24 05:06:16;;;;;;;29.85;20.32;;;;;;;;;;1804634;78;21592;-73
2023/03/24 05:08:47;;;;;;;25.35;21.68;;;35.40;52.70;;;;;;1774978;80;21138;-76
2023/03/24 05:11:20;;;;;;;26.68;22.50;;;35.60;53.80;;;;;;1807925;78;21120;-75
2023/03/24 05:13:51;;;;;;;27.40;20.45;;;35.60;54.70;;;;;;1775317;80;21998;-74
2023/03/24 05:16:24;;;;;;;26.50;21.82;;;36.30;90.30;;;;;;1820279;79;21187;-74
2023/03/24 05:18:56;;;;;;;23.75;21.02;;;35.90;91.00;;;;;;1783593;79;21127;-76
2023/03/24 05:21:27;;;;;;;25.08;21.60;;;35.90;75.40;;;;;;1819351;78;21205;-75
2023/03/24 05:24:00;;;;;;;29.27;21.10;;;36.10;75.20;;;;;;1789003;79;21211;-75
2023/03/24 05:26:31;;;;;;;30.17;24.05;;;36.10;83.50;;;;;;1816116;79;21421;-75
2023/03/24 05:29:02;;;;;;;25.70;21.23;;;36.20;69.40;;;;;;1819663;79;21117;-74
2023/03/24 05:31:33;;;;;;;27.70;21.73;;;36.20;57.60;;;;;;1820105;78;21117;-75
2023/03/24 05:34:04;;;;;;;26.68;20.43;;;36.20;56.80;;;;;;1819030;79;21172;-76
2023/03/24 05:36:37;;;;;;;26.20;22.67;;;36.30;53.70;;;;;;1784550;79;21937;-75
2023/03/24 05:39:08;;;;;;;24.18;20.40;;;36.40;53.90;;;;;;1821254;79;21163;-75
2023/03/24 05:41:39;;;;;;;23.22;20.48;;;36.40;54.30;;;;;;1787182;80;21208;-75
2023/03/24 05:44:11;;;;;;;24.18;21.00;;;36.40;55.40;;;;;;1820587;79;21628;-75
2023/03/24 05:46:42;;;;;;;23.45;20.65;;;36.40;56.70;;;;;;1815173;79;21166;-75
2023/03/24 05:49:14;;;;;;;22.65;18.87;;;36.50;56.30;;;;;;1820149;79;21164;-74
2023/03/24 05:51:45;;;;;;;23.47;21.00;;;36.50;55.30;;;;;;1786900;80;21178;-75
2023/03/24 05:54:16;;;;;;;22.60;20.30;;;36.50;53.30;;;;;;1819351;79;21136;-74
2023/03/24 05:56:47;;;;;;;26.85;21.17;;;36.50;52.50;;;;;;1813356;79;21265;-74
2023/03/24 05:59:19;;;;;;;22.10;19.45;;;36.50;53.60;;;;;;1810981;78;21139;-73
2023/03/24 06:01:52;;;;;;;25.48;20.25;;;36.60;53.00;;;;;;1810126;79;21141;-76
2023/03/24 06:04:23;;;;;;;23.32;19.02;;;36.60;53.30;;;;;;1802665;79;21119;-74
2023/03/24 06:06:54;;;;;;;24.05;19.52;;;36.50;53.50;;;;;;1807588;78;21168;-75
2023/03/24 06:09:34;;;;;;;25.12;21.17;;;36.50;53.70;;;;;;1806478;79;21153;-76
2023/03/24 06:12:01;;;;;;;23.98;20.32;;;36.50;53.50;;;;;;1796433;78;21227;-75
2023/03/24 06:14:32;;;;;;;29.95;20.48;;;36.50;53.70;;;;;;1797268;79;21190;-76
2023/03/24 06:17:03;;;;;;;23.85;18.48;;;36.40;53.50;;;;;;1784828;79;21233;-75
2023/03/24 06:19:37;;;;;;;28.73;19.52;;;36.40;54.00;;;;;;1812587;79;21128;-74
2023/03/24 06:22:07;;;;;;;21.48;18.00;;;36.40;53.10;;;;;;1816146;79;21516;-73
2023/03/24 06:24:38;;;;;;;26.60;19.32;;;36.50;53.20;;;;;;1812777;78;21194;-75
2023/03/24 06:27:10;;;;;;;22.95;18.90;;;36.60;52.40;;;;;;1809011;78;21143;-76
2023/03/24 06:30:11;;;;;;;22.20;18.05;;;36.70;52.70;;;;;;1800290;79;21166;-75
2023/03/24 06:32:45;;;;;;;20.90;17.30;;;36.70;50.30;;;;;;1797246;79;21101;-74
2023/03/24 06:35:18;;;;;;;25.60;16.40;;;36.80;49.50;;;;;;1798729;79;21869;-74
2023/03/24 06:37:51;;;;;;;19.75;17.55;;;36.80;46.40;;;;;;1809166;79;21418;-76
2023/03/24 06:40:22;;;;;;;22.87;17.80;;;36.80;47.00;;;;;;1808132;79;21108;-75
2023/03/24 06:42:53;;;;;;;19.52;16.32;;;36.80;47.20;;;;;;1806172;78;21620;-74
2023/03/24 06:45:25;;;;;;;26.60;17.60;;;36.70;46.60;;;;;;1811245;78;21289;-75
2023/03/24 06:47:57;;;;;;;20.27;16.32;;;36.70;47.50;;;;;;1809045;78;21129;-76
2023/03/24 06:50:31;;;;;;;22.07;16.80;;;36.80;47.00;;;;;;1811018;78;21097;-75
2023/03/24 06:53:02;;;;;;;19.95;17.10;;;36.70;46.70;;;;;;1812254;78;21166;-74
2023/03/24 06:55:33;;;;;;;23.02;17.37;;;36.70;46.50;;;;;;1821407;78;21691;-75
2023/03/24 06:58:04;;;;;;;19.25;16.87;;;36.70;47.00;;;;;;1815431;78;21146;-76
2023/03/24 07:00:36;;;;;;;18.70;15.03;;;36.80;47.20;;;;;;1819393;79;21148;-76
2023/03/24 07:03:08;;;;;;;22.67;16.12;;;36.80;47.40;;;;;;1833142;77;21132;-75
2023/03/24 07:05:44;;;;;;;18.67;15.70;;;36.90;46.10;;;;;;1795447;79;21235;-74
2023/03/24 07:08:13;;;;;;;20.02;16.20;;;36.80;45.70;;;;;;1826050;77;21201;-76
2023/03/24 07:10:45;;;;;;;19.12;16.55;;;36.90;46.00;;;;;;1806728;78;21246;-76
2023/03/24 07:13:16;;;;;;;21.42;16.60;;;36.90;47.10;;;;;;1816756;77;21469;-75
2023/03/24 07:15:47;;;;;;;22.93;16.48;;;36.90;47.10;;;;;;1795422;78;21205;-75
2023/03/24 07:18:19;;;;;;;53.35;17.92;;;37.00;46.30;;;;;;1825743;77;21154;-76
2023/03/24 07:20:50;;;;;;;27.82;15.85;;;37.00;46.10;;;;;;1828201;77;21212;-75
2023/03/24 07:23:23;;;;;;;18.35;15.18;;;37.00;45.10;;;;;;1829111;77;21159;-76
2023/03/24 07:25:55;;;;;;;20.20;15.28;;;37.10;46.60;;;;;;1821356;77;21200;-75
2023/03/24 07:28:26;;;;;;;18.98;16.23;;;37.00;47.60;;;;;;1834474;77;21139;-75
2023/03/24 07:30:58;;;;;;;25.02;13.20;;;37.00;45.10;;;;;;1814083;78;21275;-75
2023/03/24 07:33:30;;;;;;;15.38;12.95;;;37.10;43.90;;;;;;1823695;77;21295;-74
2023/03/24 07:36:01;;;;;;;15.25;13.65;;;37.10;42.90;;;;;;1825332;77;21232;-75
2023/03/24 07:38:33;;;;;;;15.43;13.32;;;37.10;42.50;;;;;;1808369;77;21073;-73
2023/03/24 07:41:05;;;;;;;19.00;12.82;;;37.00;43.10;;;;;;1834061;77;21144;-73
2023/03/24 07:43:36;;;;;;;19.80;14.38;;;37.00;42.90;;;;;;1831602;77;21452;-75
2023/03/24 07:46:07;;;;;;;24.90;15.63;;;37.00;43.80;;;;;;1811431;79;21200;-76
2023/03/24 07:48:40;;;;;;;20.90;15.93;;;37.00;44.10;;;;;;1832968;77;21471;-75
2023/03/24 07:51:11;;;;;;;14.90;13.15;;;37.00;43.50;;;;;;1828009;77;21155;-75
2023/03/24 07:53:44;;;;;;;17.12;13.10;;;37.00;43.20;;;;;;1827788;77;21225;-73
2023/03/24 07:56:15;;;;;;;17.40;14.65;;;37.10;42.50;;;;;;1822469;77;21220;-74
2023/03/24 07:58:46;;;;;;;19.52;14.60;;;37.10;42.80;;;;;;1814911;77;21284;-75
2023/03/24 08:01:17;;;;;;;17.82;14.50;;;37.10;43.20;;;;;;1808428;78;21204;-74
2023/03/24 08:03:53;;;;;;;16.02;13.85;;;37.10;43.30;;;;;;1802235;78;21144;-75
2023/03/24 08:06:21;;;;;;;21.95;15.25;;;37.10;43.10;;;;;;1813516;78;21621;-74
2023/03/24 08:08:52;;;;;;;16.10;14.38;;;37.10;42.80;;;;;;1818718;77;21158;-75
2023/03/24 08:11:24;;;;;;;15.43;13.55;;;37.10;42.60;;;;;;1830653;77;21443;-75
2023/03/24 08:13:55;;;;;;;17.17;14.38;;;37.10;43.10;;;;;;1811272;78;21851;-74
2023/03/24 08:16:26;;;;;;;14.93;13.45;;;37.10;44.10;;;;;;1811267;79;21195;-75
2023/03/24 08:18:58;;;;;;;15.63;14.10;;;37.10;44.10;;;;;;1799250;78;21169;-75
2023/03/24 08:21:31;;;;;;;16.77;15.08;;;37.10;43.20;;;;;;1805901;79;21069;-74
2023/03/24 08:26:58;;;;;;;28.52;18.10;;;37.10;44.10;;;;;;1842066;76;21215;-74
2023/03/24 08:29:28;;;;;;;22.22;15.23;;;37.10;43.30;;;;;;1934441;73;21154;-74
2023/03/24 08:31:59;;;;;;;19.40;15.23;;;37.10;43.30;;;;;;1918038;73;21678;-75
2023/03/24 08:34:30;;;;;;;18.00;14.93;;;37.10;43.40;;;;;;1916337;75;21354;-74
2023/03/24 08:37:03;;;;;;;16.97;15.23;;;37.20;43.10;;;;;;1914067;75;21162;-74
2023/03/24 08:39:34;;;;;;;17.75;15.75;;;37.10;42.40;;;;;;1903009;75;21225;-75
2023/03/24 08:42:06;;;;;;;17.75;15.15;;;37.10;42.70;;;;;;1914499;73;21695;-76
2023/03/24 08:44:37;;;;;;;19.37;16.42;;;37.10;43.30;;;;;;1912907;75;21377;-76
2023/03/24 08:47:09;;;;;;;18.30;14.98;;;37.10;42.80;;;;;;1871993;74;21118;-74
2023/03/24 08:49:40;;;;;;;17.55;15.65;;;37.10;42.60;;;;;;1845673;78;21143;-74
2023/03/24 08:52:11;;;;;;;16.50;14.78;;;37.10;43.60;;;;;;1851910;75;21211;-75
2023/03/24 08:58:07;;;;;;;19.27;16.05;;;36.90;42.40;;;;;;1877881;75;21237;-73
2023/03/24 09:00:39;;;;;;;16.87;14.95;;;37.10;44.00;;;;;;1849685;76;21201;-75
2023/03/24 09:03:17;;;;;;;16.50;14.85;;;37.00;43.10;;;;;;1866184;76;21164;-74
2023/03/24 09:05:49;;;;;;;22.93;14.53;;;37.00;42.50;;;;;;1842106;75;21151;-75
2023/03/24 09:08:23;;;;;;;;;;;37.00;42.60;;;;;;1876040;76;21053;-75
2023/03/24 09:10:55;;;;;;;17.37;15.50;;;37.00;44.00;;;;;;1875849;76;20172;-75
2023/03/24 09:13:26;;;;;;;18.92;16.10;;;37.00;43.80;;;;;;1876705;76;21131;-76
2023/03/24 09:16:02;;;;;;;20.17;16.05;;;36.90;43.50;;;;;;1875576;76;21147;-75
2023/03/24 09:18:34;;;;;;;24.25;15.45;;;36.90;43.30;;;;;;1874507;75;21139;-74
2023/03/24 09:21:06;;;;;;;23.12;16.37;;;36.80;43.60;;;;;;1876805;76;21124;-76
2023/03/24 09:23:37;;;;;;;19.82;16.30;;;36.80;43.20;;;;;;1872721;75;21140;-75
2023/03/24 09:26:08;;;;;;;19.57;16.02;;;36.80;43.10;;;;;;1873548;75;21192;-75
2023/03/24 09:28:40;;;;;;;19.30;16.75;;;36.80;43.40;;;;;;1894689;75;21174;-75
2023/03/24 09:31:11;;;;;;;19.73;16.93;;;36.70;43.60;;;;;;1928192;73;21854;-75
2023/03/24 09:33:43;;;;;;;18.60;16.70;;;36.70;43.60;;;;;;1896372;75;21115;-75
2023/03/24 09:36:14;;;;;;;21.87;17.98;;;36.70;44.00;;;;;;1894395;75;21165;-75
2023/03/24 09:38:45;;;;;;;19.48;17.42;;;36.70;43.70;;;;;;1892292;75;21107;-74
2023/03/24 09:41:20;;;;;;;27.20;17.35;;;36.60;44.60;;;;;;1881378;75;21162;-74
2023/03/24 09:43:55;;;;;;;21.42;18.20;;;36.50;45.10;;;;;;1939369;73;21196;-74
2023/03/24 09:46:29;;;;;;;21.97;16.93;;;36.50;43.90;;;;;;1898228;75;21181;-76
2023/03/24 09:49:00;;;;;;;19.05;16.27;;;36.50;44.30;;;;;;1895079;74;21122;-75
2023/03/24 09:51:34;;;;;;;18.70;15.55;;;36.50;44.40;;;;;;1895751;74;21192;-75
2023/03/24 09:54:22;;;;;;;18.87;16.62;;;36.50;44.50;;;;;;1896260;74;21185;-74
2023/03/24 09:56:55;;;;;;;18.90;15.60;;;36.60;44.60;;;;;;1891366;74;21220;-75
2023/03/24 09:59:35;;;;;;;22.77;16.67;;;36.50;45.00;;;;;;1888991;75;21205;-75
2023/03/24 10:02:14;;;;;;;17.23;15.28;;;36.40;45.10;;;;;;1874561;75;21157;-75
2023/03/24 10:04:46;;;;;;;26.20;21.50;;;36.40;45.20;;;;;;1928441;73;21100;-75
2023/03/24 10:07:24;;;;;;;24.55;17.12;;;36.40;44.60;;;;;;1899180;74;21103;-74
2023/03/24 10:10:02;;;;;;;23.32;17.98;;;36.30;44.10;;;;;;1886574;75;21123;-75
2023/03/24 10:12:35;;;;;;;26.93;16.70;;;36.30;44.40;;;;;;1898067;74;21717;-75
2023/03/24 10:15:28;;;;;;;27.25;17.62;;;36.30;44.50;;;;;;1912644;74;21182;-75
2023/03/24 10:18:03;;;;;;;21.70;17.17;;;36.30;45.40;;;;;;1859833;76;21150;-75
2023/03/24 10:20:42;;;;;;;18.85;16.95;;;36.20;45.40;;;;;;1927047;73;21545;-77
2023/03/24 10:23:21;;;;;;;21.17;17.20;;;36.30;45.20;;;;;;1892773;75;21977;-76
2023/03/24 10:26:01;;;;;;;23.10;17.25;;;36.20;45.30;;;;;;1865877;76;21570;-75
2023/03/24 10:28:53;;;;;;;24.57;17.48;;;36.10;44.80;;;;;;1878197;75;21132;-75
2023/03/24 10:31:30;;;;;;;20.68;17.02;;;36.10;45.80;;;;;;1871593;75;21872;-74
2023/03/24 10:34:01;;;;;;;21.35;17.50;;;36.10;45.20;;;;;;1887826;74;21633;-75
2023/03/24 10:36:34;;;;;;;20.70;16.97;;;36.10;45.70;;;;;;1898759;74;21118;-75
2023/03/24 10:39:06;;;;;;;23.57;17.85;;;36.10;45.80;;;;;;1920938;74;21192;-76
2023/03/24 10:41:40;;;;;;;20.92;16.90;;;36.10;46.20;;;;;;1910651;73;21114;-75
2023/03/24 10:44:13;;;;;;;24.30;17.90;;;36.00;45.80;;;;;;1914499;74;21377;-76
2023/03/24 10:46:50;;;;;;;24.15;17.48;;;36.10;46.20;;;;;;1919238;74;21200;-77
2023/03/24 10:49:23;;;;;;;24.32;18.20;;;36.00;45.60;;;;;;1914996;75;21186;-76
2023/03/24 10:52:00;;;;;;;20.97;17.67;;;35.90;46.00;;;;;;1888487;75;21121;-76
2023/03/24 10:54:30;;;;;;;24.25;18.10;;;35.90;45.50;;;;;;1905069;74;21847;-74
2023/03/24 10:57:04;;;;;;;20.48;17.92;;;35.90;46.00;;;;;;1896573;75;21178;-77
2023/03/24 10:59:38;;;;;;;27.75;18.85;;;35.90;46.10;;;;;;1885853;75;21139;-75
2023/03/24 11:02:14;;;;;;;23.25;18.50;;;35.80;46.30;;;;;;1890554;76;21200;-75
2023/03/24 11:04:51;;;;;;;20.77;18.57;;;35.80;46.70;;;;;;1856989;76;21589;-75
2023/03/24 11:07:22;;;;;;;;;;;35.70;46.70;;;;;;1888226;76;21169;-75
2023/03/24 11:10:16;;;;;;;35.90;20.08;;;35.70;47.20;;;;;;1892950;76;20249;-76
2023/03/24 11:13:01;;;;;;;29.20;19.23;;;35.70;47.30;;;;;;1919121;73;21345;-83
2023/03/24 11:15:32;;;;;;;24.70;18.27;;;35.60;47.80;;;;;;1916473;74;21157;-82
2023/03/24 11:18:15;;;;;;;28.80;19.75;;;35.60;47.70;;;;;;1890316;73;21454;-83
2023/03/24 11:21:07;;;;;;;24.05;19.67;;;35.60;47.50;;;;;;1895713;74;21158;-82
2023/03/24 11:23:44;;;;;;;34.03;20.57;;;35.60;47.50;;;;;;1916759;74;21219;-79
2023/03/24 11:26:23;;;;;;;22.73;18.48;;;35.50;47.60;;;;;;1898483;74;21224;-83
2023/03/24 11:28:59;;;;;;;29.98;21.02;;;35.50;47.70;;;;;;1899149;75;21477;-83
2023/03/24 11:31:33;;;;;;;29.90;21.33;;;35.40;47.90;;;;;;1911472;74;21181;-82
2023/03/24 11:34:10;;;;;;;32.45;21.23;;;35.40;48.20;;;;;;1904899;74;21154;-82
2023/03/24 11:36:41;;;;;;;;;;;35.40;48.40;;;;;;1906705;74;21543;-83
2023/03/24 11:39:16;;;;;;;29.23;21.70;;;35.30;48.60;;;;;;1930383;74;20218;-83
2023/03/24 11:42:15;;;;;;;30.23;20.92;;;35.30;48.50;;;;;;1926694;74;21130;-83
2023/03/24 11:44:51;;;;;;;27.20;21.15;;;35.30;48.50;;;;;;1897073;74;21122;-82
2023/03/24 11:47:39;;;;;;;24.25;21.68;;;35.20;48.50;;;;;;1931448;74;21115;-82
2023/03/24 11:50:15;;;;;;;27.07;20.80;;;35.20;48.80;;;;;;1898850;74;21200;-83
2023/03/24 11:53:05;;;;;;;24.85;19.70;;;35.20;48.90;;;;;;1919727;73;21200;-84
2023/03/24 11:55:56;;;;;;;26.93;20.35;;;35.20;49.10;;;;;;1916747;74;21209;-82
2023/03/24 11:58:35;;;;;;;25.08;20.30;;;35.10;48.90;;;;;;1928352;74;21172;-82
2023/03/24 12:01:08;;;;;;;26.93;19.60;;;35.10;49.00;;;;;;1918925;73;21151;-82
2023/03/24 12:03:50;;;;;;;27.07;19.48;;;35.10;49.30;;;;;;1923262;73;21126;-83
2023/03/24 12:06:32;;;;;;;24.67;20.35;;;35.00;49.50;;;;;;1928973;74;21143;-83
2023/03/24 12:09:11;;;;;;;30.70;22.27;;;35.00;49.60;;;;;;1935020;73;21642;-83
2023/03/24 12:12:08;;;;;;;35.17;23.77;;;35.00;50.20;;;;;;1897331;75;21602;-84
2023/03/24 12:14:44;;;;;;;31.42;22.15;;;34.90;50.10;;;;;;1933842;73;21275;-83
2023/03/24 12:17:17;;;;;;;32.17;24.92;;;34.80;50.00;;;;;;1903958;74;21170;-83
2023/03/24 12:20:05;;;;;;;32.93;23.45;;;34.80;50.00;;;;;;1901536;74;21086;-82
2023/03/24 12:22:45;;;;;;;25.80;22.73;;;34.80;50.20;;;;;;1904500;75;21166;-82
2023/03/24 12:25:47;;;;;;;28.47;22.60;;;34.70;50.40;;;;;;1931248;73;21694;-82
2023/03/24 12:28:39;;;;;;;30.92;22.70;;;34.70;50.50;;;;;;1900469;73;21162;-83
2023/03/24 12:31:34;;;;;;;32.70;23.20;;;34.70;50.70;;;;;;1872733;75;21607;-83
2023/03/24 12:34:14;;;;;;;29.67;22.62;;;34.60;50.70;;;;;;1885467;76;21169;-84
2023/03/24 12:37:11;;;;;;;31.75;22.30;;;34.60;50.60;;;;;;1884490;74;21115;-82
2023/03/24 12:39:44;;;;;;;27.10;22.55;;;34.60;50.90;;;;;;1887638;75;21241;-81
2023/03/24 12:42:18;;;;;;;25.40;22.42;;;34.60;51.00;;;;;;1857080;76;21154;-82
2023/03/24 12:45:06;;;;;;;28.38;23.25;;;34.60;51.10;;;;;;1843886;77;21231;-83
2023/03/24 12:47:55;;;;;;;33.85;22.07;;;34.50;51.20;;;;;;1876931;75;21536;-83
2023/03/24 12:50:33;;;;;;;28.73;23.67;;;34.50;51.40;;;;;;1846890;76;21109;-82
2023/03/24 12:53:25;;;;;;;28.98;24.07;;;34.40;51.30;;;;;;1874914;75;21747;-82
2023/03/24 12:56:20;;;;;;;29.80;22.87;;;34.40;51.70;;;;;;1827943;77;21748;-82
2023/03/24 12:59:06;;;;;;;31.30;23.57;;;34.50;51.60;;;;;;1912056;73;21133;-82
2023/03/24 13:01:44;;;;;;;30.83;23.30;;;34.40;51.50;;;;;;1922624;73;21134;-82
2023/03/24 13:04:37;;;;;;;39.92;24.43;;;34.40;51.40;;;;;;1885169;75;21652;-82
2023/03/24 13:07:13;;;;;;;44.30;24.15;;;34.40;51.50;;;;;;1885783;76;21103;-81
2023/03/24 13:09:47;;;;;;;;;;;34.40;51.70;;;;;;1874296;75;21115;-81
2023/03/24 13:12:23;;;;;;;36.05;23.60;;;34.40;51.90;;;;;;1885672;74;20181;-81
2023/03/24 13:15:04;;;;;;;;;;;34.40;51.80;;;;;;1883172;75;21252;-81
2023/03/24 13:17:40;;;;;;;37.33;24.87;;;34.40;52.10;;;;;;1846902;77;20505;-81